sensor_id;sensor_type;location;lat;lon;timestamp;temperature;humidity
4406;DHT22;2216;53.806;11.598;2023-08-06T00:00:21;15.80;63.80
4406;DHT22;2216;53.806;11.598;2023-08-06T00:02:48;15.80;63.80
4406;DHT22;2216;53.806;11.598;2023-08-06T00:05:14;15.80;63.90
4406;DHT22;2216;53.806;11.598;2023-08-06T00:07:52;15.70;63.80
4406;DHT22;2216;53.806;11.598;2023-08-06T00:10:17;15.70;63.80
4406;DHT22;2216;53.806;11.598;2023-08-06T00:12:44;15.70;63.80
4406;DHT22;2216;53.806;11.598;2023-08-06T00:15:10;15.70;63.90
4406;DHT22;2216;53.806;11.598;2023-08-06T00:17:36;15.70;63.90
4406;DHT22;2216;53.806;11.598;2023-08-06T00:20:03;15.70;63.80
4406;DHT22;2216;53.806;11.598;2023-08-06T00:22:33;15.70;63.80
4406;DHT22;2216;53.806;11.598;2023-08-06T00:25:03;15.60;63.80
4406;DHT22;2216;53.806;11.598;2023-08-06T00:27:29;15.70;63.90
4406;DHT22;2216;53.806;11.598;2023-08-06T00:29:55;15.70;64.10
4406;DHT22;2216;53.806;11.598;2023-08-06T00:32:21;15.60;64.00
4406;DHT22;2216;53.806;11.598;2023-08-06T00:34:46;15.70;64.00
4406;DHT22;2216;53.806;11.598;2023-08-06T00:37:17;15.80;64.10
4406;DHT22;2216;53.806;11.598;2023-08-06T00:39:43;15.70;64.10
4406;DHT22;2216;53.806;11.598;2023-08-06T00:42:10;15.60;64.00
4406;DHT22;2216;53.806;11.598;2023-08-06T00:44:36;15.70;64.10
4406;DHT22;2216;53.806;11.598;2023-08-06T00:47:03;15.60;64.00
4406;DHT22;2216;53.806;11.598;2023-08-06T00:49:29;15.70;64.10
4406;DHT22;2216;53.806;11.598;2023-08-06T00:51:55;15.60;64.00
4406;DHT22;2216;53.806;11.598;2023-08-06T00:54:21;15.70;64.10
4406;DHT22;2216;53.806;11.598;2023-08-06T00:56:48;15.70;64.10
4406;DHT22;2216;53.806;11.598;2023-08-06T00:59:14;15.60;64.00
4406;DHT22;2216;53.806;11.598;2023-08-06T01:01:40;15.60;64.00
4406;DHT22;2216;53.806;11.598;2023-08-06T01:04:05;15.70;64.10
4406;DHT22;2216;53.806;11.598;2023-08-06T01:06:42;15.60;64.00
4406;DHT22;2216;53.806;11.598;2023-08-06T01:09:23;15.60;64.00
4406;DHT22;2216;53.806;11.598;2023-08-06T01:12:25;15.60;64.10
4406;DHT22;2216;53.806;11.598;2023-08-06T01:15:35;15.60;64.00
4406;DHT22;2216;53.806;11.598;2023-08-06T01:18:06;15.60;64.00
4406;DHT22;2216;53.806;11.598;2023-08-06T01:20:33;15.60;64.00
4406;DHT22;2216;53.806;11.598;2023-08-06T01:22:58;15.60;64.00
4406;DHT22;2216;53.806;11.598;2023-08-06T01:25:31;15.60;64.10
4406;DHT22;2216;53.806;11.598;2023-08-06T01:31:13;15.60;64.10
4406;DHT22;2216;53.806;11.598;2023-08-06T01:33:43;15.60;64.10
4406;DHT22;2216;53.806;11.598;2023-08-06T01:36:11;15.60;64.20
4406;DHT22;2216;53.806;11.598;2023-08-06T01:38:37;15.60;64.20
4406;DHT22;2216;53.806;11.598;2023-08-06T01:41:03;15.60;64.10
4406;DHT22;2216;53.806;11.598;2023-08-06T01:43:28;15.60;64.10
4406;DHT22;2216;53.806;11.598;2023-08-06T01:45:54;15.60;64.10
4406;DHT22;2216;53.806;11.598;2023-08-06T01:48:20;15.60;64.00
4406;DHT22;2216;53.806;11.598;2023-08-06T01:50:45;15.60;64.00
4406;DHT22;2216;53.806;11.598;2023-08-06T01:53:11;15.60;64.00
4406;DHT22;2216;53.806;11.598;2023-08-06T01:55:37;15.60;64.00
4406;DHT22;2216;53.806;11.598;2023-08-06T01:58:02;15.60;64.10
4406;DHT22;2216;53.806;11.598;2023-08-06T02:00:28;15.60;64.10
4406;DHT22;2216;53.806;11.598;2023-08-06T02:02:54;15.60;64.10
4406;DHT22;2216;53.806;11.598;2023-08-06T02:05:19;15.60;64.10
4406;DHT22;2216;53.806;11.598;2023-08-06T02:07:45;15.60;64.20
4406;DHT22;2216;53.806;11.598;2023-08-06T02:10:11;15.30;63.90
4406;DHT22;2216;53.806;11.598;2023-08-06T02:12:36;15.40;64.00
4406;DHT22;2216;53.806;11.598;2023-08-06T02:15:03;15.50;64.10
4406;DHT22;2216;53.806;11.598;2023-08-06T02:17:29;15.50;64.20
4406;DHT22;2216;53.806;11.598;2023-08-06T02:19:54;15.50;64.20
4406;DHT22;2216;53.806;11.598;2023-08-06T02:22:20;15.50;64.20
4406;DHT22;2216;53.806;11.598;2023-08-06T02:24:46;15.50;64.20
4406;DHT22;2216;53.806;11.598;2023-08-06T02:27:11;15.50;64.20
4406;DHT22;2216;53.806;11.598;2023-08-06T02:29:37;15.50;64.20
4406;DHT22;2216;53.806;11.598;2023-08-06T02:32:06;15.40;64.20
4406;DHT22;2216;53.806;11.598;2023-08-06T02:34:32;15.50;64.80
4406;DHT22;2216;53.806;11.598;2023-08-06T02:36:58;15.40;64.20
4406;DHT22;2216;53.806;11.598;2023-08-06T02:39:23;15.40;64.30
4406;DHT22;2216;53.806;11.598;2023-08-06T02:41:49;15.40;64.30
4406;DHT22;2216;53.806;11.598;2023-08-06T02:44:15;15.50;64.40
4406;DHT22;2216;53.806;11.598;2023-08-06T02:46:40;15.50;64.40
4406;DHT22;2216;53.806;11.598;2023-08-06T02:49:06;15.50;64.50
4406;DHT22;2216;53.806;11.598;2023-08-06T02:51:32;15.40;64.30
4406;DHT22;2216;53.806;11.598;2023-08-06T02:53:58;15.50;64.40
4406;DHT22;2216;53.806;11.598;2023-08-06T02:56:23;15.50;64.40
4406;DHT22;2216;53.806;11.598;2023-08-06T02:58:49;15.50;64.40
4406;DHT22;2216;53.806;11.598;2023-08-06T03:01:15;15.50;64.40
4406;DHT22;2216;53.806;11.598;2023-08-06T03:03:40;15.40;64.30
4406;DHT22;2216;53.806;11.598;2023-08-06T03:06:06;15.40;65.00
4406;DHT22;2216;53.806;11.598;2023-08-06T03:08:32;15.40;64.30
4406;DHT22;2216;53.806;11.598;2023-08-06T03:10:57;15.40;64.30
4406;DHT22;2216;53.806;11.598;2023-08-06T03:13:23;15.40;64.30
4406;DHT22;2216;53.806;11.598;2023-08-06T03:15:53;15.40;64.30
4406;DHT22;2216;53.806;11.598;2023-08-06T03:18:19;15.40;64.30
4406;DHT22;2216;53.806;11.598;2023-08-06T03:20:45;15.40;64.40
4406;DHT22;2216;53.806;11.598;2023-08-06T03:23:11;15.40;64.30
4406;DHT22;2216;53.806;11.598;2023-08-06T03:25:36;15.40;64.30
4406;DHT22;2216;53.806;11.598;2023-08-06T03:28:02;15.40;64.30
4406;DHT22;2216;53.806;11.598;2023-08-06T03:30:28;15.40;64.40
4406;DHT22;2216;53.806;11.598;2023-08-06T03:32:54;15.30;64.30
4406;DHT22;2216;53.806;11.598;2023-08-06T03:35:20;15.30;64.40
4406;DHT22;2216;53.806;11.598;2023-08-06T03:37:46;15.30;64.40
4406;DHT22;2216;53.806;11.598;2023-08-06T03:40:12;15.30;64.60
4406;DHT22;2216;53.806;11.598;2023-08-06T03:42:37;15.30;64.50
4406;DHT22;2216;53.806;11.598;2023-08-06T03:45:03;15.30;64.50
4406;DHT22;2216;53.806;11.598;2023-08-06T03:47:29;15.30;64.60
4406;DHT22;2216;53.806;11.598;2023-08-06T03:49:55;15.30;64.60
4406;DHT22;2216;53.806;11.598;2023-08-06T03:52:21;15.20;64.50
4406;DHT22;2216;53.806;11.598;2023-08-06T03:54:47;15.20;64.50
4406;DHT22;2216;53.806;11.598;2023-08-06T03:57:13;15.20;64.60
4406;DHT22;2216;53.806;11.598;2023-08-06T03:59:38;15.20;64.50
4406;DHT22;2216;53.806;11.598;2023-08-06T04:02:04;15.20;64.50
4406;DHT22;2216;53.806;11.598;2023-08-06T04:04:30;15.20;64.60
4406;DHT22;2216;53.806;11.598;2023-08-06T04:06:55;15.20;64.60
4406;DHT22;2216;53.806;11.598;2023-08-06T04:09:21;15.20;65.30
4406;DHT22;2216;53.806;11.598;2023-08-06T04:11:47;15.20;64.70
4406;DHT22;2216;53.806;11.598;2023-08-06T04:14:12;15.20;64.70
4406;DHT22;2216;53.806;11.598;2023-08-06T04:16:38;15.20;64.70
4406;DHT22;2216;53.806;11.598;2023-08-06T04:19:03;15.20;64.80
4406;DHT22;2216;53.806;11.598;2023-08-06T04:21:29;15.20;64.90
4406;DHT22;2216;53.806;11.598;2023-08-06T04:23:56;15.20;64.90
4406;DHT22;2216;53.806;11.598;2023-08-06T04:26:22;15.20;64.90
4406;DHT22;2216;53.806;11.598;2023-08-06T04:28:47;15.30;65.00
4406;DHT22;2216;53.806;11.598;2023-08-06T04:31:14;15.30;65.00
4406;DHT22;2216;53.806;11.598;2023-08-06T04:33:40;15.30;65.10
4406;DHT22;2216;53.806;11.598;2023-08-06T04:36:06;15.30;65.10
4406;DHT22;2216;53.806;11.598;2023-08-06T04:38:32;15.20;65.00
4406;DHT22;2216;53.806;11.598;2023-08-06T04:40:58;15.30;65.10
4406;DHT22;2216;53.806;11.598;2023-08-06T04:43:23;15.20;65.00
4406;DHT22;2216;53.806;11.598;2023-08-06T04:45:50;15.20;65.00
4406;DHT22;2216;53.806;11.598;2023-08-06T04:48:17;15.30;65.10
4406;DHT22;2216;53.806;11.598;2023-08-06T04:50:47;15.30;65.10
4406;DHT22;2216;53.806;11.598;2023-08-06T04:53:14;15.30;65.10
4406;DHT22;2216;53.806;11.598;2023-08-06T04:55:40;15.30;65.90
4406;DHT22;2216;53.806;11.598;2023-08-06T04:58:06;15.30;65.10
4406;DHT22;2216;53.806;11.598;2023-08-06T05:00:32;15.30;65.10
4406;DHT22;2216;53.806;11.598;2023-08-06T05:03:02;15.30;65.20
4406;DHT22;2216;53.806;11.598;2023-08-06T05:05:28;15.40;65.20
4406;DHT22;2216;53.806;11.598;2023-08-06T05:07:55;15.40;65.40
4406;DHT22;2216;53.806;11.598;2023-08-06T05:10:24;15.30;65.30
4406;DHT22;2216;53.806;11.598;2023-08-06T05:12:50;15.30;66.40
4406;DHT22;2216;53.806;11.598;2023-08-06T05:15:15;15.30;65.80
4406;DHT22;2216;53.806;11.598;2023-08-06T05:17:41;15.40;65.70
4406;DHT22;2216;53.806;11.598;2023-08-06T05:20:07;15.40;65.80
4406;DHT22;2216;53.806;11.598;2023-08-06T05:22:33;15.40;65.70
4406;DHT22;2216;53.806;11.598;2023-08-06T05:24:59;15.40;65.70
4406;DHT22;2216;53.806;11.598;2023-08-06T05:27:24;15.50;65.90
4406;DHT22;2216;53.806;11.598;2023-08-06T05:29:50;15.50;66.00
4406;DHT22;2216;53.806;11.598;2023-08-06T05:32:20;15.50;65.90
4406;DHT22;2216;53.806;11.598;2023-08-06T05:34:46;15.50;65.90
4406;DHT22;2216;53.806;11.598;2023-08-06T05:37:11;15.60;66.10
4406;DHT22;2216;53.806;11.598;2023-08-06T05:39:37;15.60;66.00
4406;DHT22;2216;53.806;11.598;2023-08-06T05:42:03;15.60;66.00
4406;DHT22;2216;53.806;11.598;2023-08-06T05:44:29;15.70;66.20
4406;DHT22;2216;53.806;11.598;2023-08-06T05:46:54;15.80;66.10
4406;DHT22;2216;53.806;11.598;2023-08-06T05:49:20;15.70;65.90
4406;DHT22;2216;53.806;11.598;2023-08-06T05:51:45;15.80;65.90
4406;DHT22;2216;53.806;11.598;2023-08-06T05:54:11;15.80;66.00
4406;DHT22;2216;53.806;11.598;2023-08-06T05:56:37;15.90;66.00
4406;DHT22;2216;53.806;11.598;2023-08-06T05:59:02;15.90;66.00
4406;DHT22;2216;53.806;11.598;2023-08-06T06:01:28;16.00;66.10
4406;DHT22;2216;53.806;11.598;2023-08-06T06:03:54;16.00;66.10
4406;DHT22;2216;53.806;11.598;2023-08-06T06:06:19;16.00;66.00
4406;DHT22;2216;53.806;11.598;2023-08-06T06:08:45;16.10;66.10
4406;DHT22;2216;53.806;11.598;2023-08-06T06:11:11;16.10;66.10
4406;DHT22;2216;53.806;11.598;2023-08-06T06:13:36;16.10;65.90
4406;DHT22;2216;53.806;11.598;2023-08-06T06:16:02;16.20;66.00
4406;DHT22;2216;53.806;11.598;2023-08-06T06:18:28;16.20;66.00
4406;DHT22;2216;53.806;11.598;2023-08-06T06:20:53;16.30;66.10
4406;DHT22;2216;53.806;11.598;2023-08-06T06:23:19;16.30;66.10
4406;DHT22;2216;53.806;11.598;2023-08-06T06:25:49;16.40;66.40
4406;DHT22;2216;53.806;11.598;2023-08-06T06:28:17;16.40;66.20
4406;DHT22;2216;53.806;11.598;2023-08-06T06:30:43;16.40;66.10
4406;DHT22;2216;53.806;11.598;2023-08-06T06:33:09;16.50;66.10
4406;DHT22;2216;53.806;11.598;2023-08-06T06:35:35;16.50;66.10
4406;DHT22;2216;53.806;11.598;2023-08-06T06:38:00;16.60;66.10
4406;DHT22;2216;53.806;11.598;2023-08-06T06:40:26;16.60;66.20
4406;DHT22;2216;53.806;11.598;2023-08-06T06:42:52;16.60;66.10
4406;DHT22;2216;53.806;11.598;2023-08-06T06:45:17;16.70;66.30
4406;DHT22;2216;53.806;11.598;2023-08-06T06:47:43;16.70;66.20
4406;DHT22;2216;53.806;11.598;2023-08-06T06:50:09;16.80;66.40
4406;DHT22;2216;53.806;11.598;2023-08-06T06:52:35;16.80;66.20
4406;DHT22;2216;53.806;11.598;2023-08-06T06:55:00;16.80;66.10
4406;DHT22;2216;53.806;11.598;2023-08-06T06:57:26;16.90;66.20
4406;DHT22;2216;53.806;11.598;2023-08-06T06:59:52;16.90;66.20
4406;DHT22;2216;53.806;11.598;2023-08-06T07:02:18;17.00;66.20
4406;DHT22;2216;53.806;11.598;2023-08-06T07:04:43;17.00;66.20
4406;DHT22;2216;53.806;11.598;2023-08-06T07:07:09;17.00;66.30
4406;DHT22;2216;53.806;11.598;2023-08-06T07:09:35;17.10;66.40
4406;DHT22;2216;53.806;11.598;2023-08-06T07:12:01;17.10;66.40
4406;DHT22;2216;53.806;11.598;2023-08-06T07:14:28;17.20;66.70
4406;DHT22;2216;53.806;11.598;2023-08-06T07:16:54;17.20;66.80
4406;DHT22;2216;53.806;11.598;2023-08-06T07:19:20;17.30;66.40
4406;DHT22;2216;53.806;11.598;2023-08-06T07:21:45;17.40;66.60
4406;DHT22;2216;53.806;11.598;2023-08-06T07:24:11;17.40;66.90
4406;DHT22;2216;53.806;11.598;2023-08-06T07:26:37;17.50;66.70
4406;DHT22;2216;53.806;11.598;2023-08-06T07:29:03;17.50;66.60
4406;DHT22;2216;53.806;11.598;2023-08-06T07:31:29;17.60;66.80
4406;DHT22;2216;53.806;11.598;2023-08-06T07:33:55;17.60;66.60
4406;DHT22;2216;53.806;11.598;2023-08-06T07:36:21;17.60;66.60
4406;DHT22;2216;53.806;11.598;2023-08-06T07:38:46;17.70;66.80
4406;DHT22;2216;53.806;11.598;2023-08-06T07:41:14;17.70;66.70
4406;DHT22;2216;53.806;11.598;2023-08-06T07:43:39;17.80;66.50
4406;DHT22;2216;53.806;11.598;2023-08-06T07:46:05;17.80;66.50
4406;DHT22;2216;53.806;11.598;2023-08-06T07:48:31;17.90;66.50
4406;DHT22;2216;53.806;11.598;2023-08-06T07:50:56;17.90;66.40
4406;DHT22;2216;53.806;11.598;2023-08-06T07:53:23;18.00;66.50
4406;DHT22;2216;53.806;11.598;2023-08-06T07:55:52;18.00;66.60
4406;DHT22;2216;53.806;11.598;2023-08-06T07:58:20;18.10;66.60
4406;DHT22;2216;53.806;11.598;2023-08-06T08:00:46;18.10;66.40
4406;DHT22;2216;53.806;11.598;2023-08-06T08:03:13;18.10;66.50
4406;DHT22;2216;53.806;11.598;2023-08-06T08:05:40;18.10;66.40
4406;DHT22;2216;53.806;11.598;2023-08-06T08:08:06;18.20;66.40
4406;DHT22;2216;53.806;11.598;2023-08-06T08:10:33;18.20;66.50
4406;DHT22;2216;53.806;11.598;2023-08-06T08:13:00;18.30;66.40
4406;DHT22;2216;53.806;11.598;2023-08-06T08:15:28;18.30;66.30
4406;DHT22;2216;53.806;11.598;2023-08-06T08:17:54;18.40;66.40
4406;DHT22;2216;53.806;11.598;2023-08-06T08:20:20;18.30;66.30
4406;DHT22;2216;53.806;11.598;2023-08-06T08:22:46;18.50;66.40
4406;DHT22;2216;53.806;11.598;2023-08-06T08:25:12;18.50;66.40
4406;DHT22;2216;53.806;11.598;2023-08-06T08:27:37;18.60;66.40
4406;DHT22;2216;53.806;11.598;2023-08-06T08:30:04;18.60;66.30
4406;DHT22;2216;53.806;11.598;2023-08-06T08:32:30;18.60;66.20
4406;DHT22;2216;53.806;11.598;2023-08-06T08:34:56;18.70;66.30
4406;DHT22;2216;53.806;11.598;2023-08-06T08:37:22;18.70;66.40
4406;DHT22;2216;53.806;11.598;2023-08-06T08:39:48;18.80;66.30
4406;DHT22;2216;53.806;11.598;2023-08-06T08:42:15;18.80;66.30
4406;DHT22;2216;53.806;11.598;2023-08-06T08:44:42;18.80;66.30
4406;DHT22;2216;53.806;11.598;2023-08-06T08:47:08;18.90;66.30
4406;DHT22;2216;53.806;11.598;2023-08-06T08:49:36;18.90;66.20
4406;DHT22;2216;53.806;11.598;2023-08-06T08:52:03;19.00;66.20
4406;DHT22;2216;53.806;11.598;2023-08-06T08:54:32;19.00;66.90
4406;DHT22;2216;53.806;11.598;2023-08-06T08:56:59;19.00;66.10
4406;DHT22;2216;53.806;11.598;2023-08-06T08:59:25;19.00;66.00
4406;DHT22;2216;53.806;11.598;2023-08-06T09:01:51;19.00;66.00
4406;DHT22;2216;53.806;11.598;2023-08-06T09:04:19;19.10;66.10
4406;DHT22;2216;53.806;11.598;2023-08-06T09:06:48;19.10;66.10
4406;DHT22;2216;53.806;11.598;2023-08-06T09:09:20;19.10;66.10
4406;DHT22;2216;53.806;11.598;2023-08-06T09:11:49;19.10;66.10
4406;DHT22;2216;53.806;11.598;2023-08-06T09:14:16;19.20;66.10
4406;DHT22;2216;53.806;11.598;2023-08-06T09:16:42;19.20;66.10
4406;DHT22;2216;53.806;11.598;2023-08-06T09:19:09;19.20;66.20
4406;DHT22;2216;53.806;11.598;2023-08-06T09:21:38;19.30;66.30
4406;DHT22;2216;53.806;11.598;2023-08-06T09:24:11;19.30;66.30
4406;DHT22;2216;53.806;11.598;2023-08-06T09:26:38;19.40;66.40
4406;DHT22;2216;53.806;11.598;2023-08-06T09:29:06;19.50;66.50
4406;DHT22;2216;53.806;11.598;2023-08-06T09:31:47;19.50;66.30
4406;DHT22;2216;53.806;11.598;2023-08-06T09:34:23;19.60;66.30
4406;DHT22;2216;53.806;11.598;2023-08-06T09:36:53;19.70;66.20
4406;DHT22;2216;53.806;11.598;2023-08-06T09:39:21;19.70;66.20
4406;DHT22;2216;53.806;11.598;2023-08-06T09:41:59;19.80;66.10
4406;DHT22;2216;53.806;11.598;2023-08-06T09:44:28;19.80;66.10
4406;DHT22;2216;53.806;11.598;2023-08-06T09:46:57;19.90;66.00
4406;DHT22;2216;53.806;11.598;2023-08-06T09:49:28;19.90;65.90
4406;DHT22;2216;53.806;11.598;2023-08-06T09:52:12;19.90;65.80
4406;DHT22;2216;53.806;11.598;2023-08-06T09:54:39;20.00;65.90
4406;DHT22;2216;53.806;11.598;2023-08-06T09:57:05;20.00;65.80
4406;DHT22;2216;53.806;11.598;2023-08-06T09:59:32;20.10;65.70
4406;DHT22;2216;53.806;11.598;2023-08-06T10:01:58;20.10;65.70
4406;DHT22;2216;53.806;11.598;2023-08-06T10:04:24;20.10;65.70
4406;DHT22;2216;53.806;11.598;2023-08-06T10:06:50;20.20;65.70
4406;DHT22;2216;53.806;11.598;2023-08-06T10:09:16;20.10;65.60
4406;DHT22;2216;53.806;11.598;2023-08-06T10:11:43;20.10;65.50
4406;DHT22;2216;53.806;11.598;2023-08-06T10:14:18;20.20;65.60
4406;DHT22;2216;53.806;11.598;2023-08-06T10:16:47;20.20;65.70
4406;DHT22;2216;53.806;11.598;2023-08-06T10:19:13;20.20;65.60
4406;DHT22;2216;53.806;11.598;2023-08-06T10:21:41;20.20;65.50
4406;DHT22;2216;53.806;11.598;2023-08-06T10:24:07;20.30;65.50
4406;DHT22;2216;53.806;11.598;2023-08-06T10:26:36;20.30;65.70
4406;DHT22;2216;53.806;11.598;2023-08-06T10:29:35;20.30;65.60
4406;DHT22;2216;53.806;11.598;2023-08-06T10:32:02;20.40;65.60
4406;DHT22;2216;53.806;11.598;2023-08-06T10:34:54;20.40;65.50
4406;DHT22;2216;53.806;11.598;2023-08-06T10:37:22;20.40;65.50
4406;DHT22;2216;53.806;11.598;2023-08-06T10:39:52;20.40;65.50
4406;DHT22;2216;53.806;11.598;2023-08-06T10:42:22;20.40;65.50
4406;DHT22;2216;53.806;11.598;2023-08-06T10:45:15;20.40;65.50
4406;DHT22;2216;53.806;11.598;2023-08-06T10:47:42;20.50;66.40
4406;DHT22;2216;53.806;11.598;2023-08-06T10:50:15;20.50;65.60
4406;DHT22;2216;53.806;11.598;2023-08-06T10:52:46;20.50;65.60
4406;DHT22;2216;53.806;11.598;2023-08-06T10:55:13;20.50;65.40
4406;DHT22;2216;53.806;11.598;2023-08-06T10:57:40;20.50;65.30
4406;DHT22;2216;53.806;11.598;2023-08-06T11:00:07;20.50;65.30
4406;DHT22;2216;53.806;11.598;2023-08-06T11:02:34;20.50;65.40
4406;DHT22;2216;53.806;11.598;2023-08-06T11:05:05;20.50;65.40
4406;DHT22;2216;53.806;11.598;2023-08-06T11:07:32;20.50;65.30
4406;DHT22;2216;53.806;11.598;2023-08-06T11:10:16;20.50;65.10
4406;DHT22;2216;53.806;11.598;2023-08-06T11:12:42;20.50;65.00
4406;DHT22;2216;53.806;11.598;2023-08-06T11:15:08;20.50;65.20
4406;DHT22;2216;53.806;11.598;2023-08-06T11:17:35;20.50;65.20
4406;DHT22;2216;53.806;11.598;2023-08-06T11:20:03;20.50;65.10
4406;DHT22;2216;53.806;11.598;2023-08-06T11:22:30;20.40;65.10
4406;DHT22;2216;53.806;11.598;2023-08-06T11:24:56;20.50;64.80
4406;DHT22;2216;53.806;11.598;2023-08-06T11:27:22;20.50;64.90
4406;DHT22;2216;53.806;11.598;2023-08-06T11:29:48;20.40;64.90
4406;DHT22;2216;53.806;11.598;2023-08-06T11:32:14;20.40;64.90
4406;DHT22;2216;53.806;11.598;2023-08-06T11:34:40;20.40;64.80
4406;DHT22;2216;53.806;11.598;2023-08-06T11:37:07;20.40;64.70
4406;DHT22;2216;53.806;11.598;2023-08-06T11:39:36;20.40;64.80
4406;DHT22;2216;53.806;11.598;2023-08-06T11:42:04;20.30;64.80
4406;DHT22;2216;53.806;11.598;2023-08-06T11:44:31;20.30;64.60
4406;DHT22;2216;53.806;11.598;2023-08-06T11:46:59;20.30;64.70
4406;DHT22;2216;53.806;11.598;2023-08-06T11:52:12;20.40;64.90
4406;DHT22;2216;53.806;11.598;2023-08-06T11:54:39;20.40;64.80
4406;DHT22;2216;53.806;11.598;2023-08-06T11:57:05;20.40;64.90
4406;DHT22;2216;53.806;11.598;2023-08-06T11:59:32;20.40;65.00
4406;DHT22;2216;53.806;11.598;2023-08-06T12:01:59;20.30;64.90
4406;DHT22;2216;53.806;11.598;2023-08-06T12:04:26;20.50;65.10
4406;DHT22;2216;53.806;11.598;2023-08-06T12:06:52;20.50;64.90
4406;DHT22;2216;53.806;11.598;2023-08-06T12:09:18;20.50;64.30
4406;DHT22;2216;53.806;11.598;2023-08-06T12:11:44;20.50;64.70
4406;DHT22;2216;53.806;11.598;2023-08-06T12:14:10;20.60;65.40
4406;DHT22;2216;53.806;11.598;2023-08-06T12:16:35;20.60;64.60
4406;DHT22;2216;53.806;11.598;2023-08-06T12:19:01;20.60;64.60
4406;DHT22;2216;53.806;11.598;2023-08-06T12:21:27;20.60;64.60
4406;DHT22;2216;53.806;11.598;2023-08-06T12:23:52;20.60;64.50
4406;DHT22;2216;53.806;11.598;2023-08-06T12:26:18;20.60;64.60
4406;DHT22;2216;53.806;11.598;2023-08-06T12:28:44;20.50;64.50
4406;DHT22;2216;53.806;11.598;2023-08-06T12:31:09;20.60;64.60
4406;DHT22;2216;53.806;11.598;2023-08-06T12:33:35;20.60;64.50
4406;DHT22;2216;53.806;11.598;2023-08-06T12:36:00;20.60;64.50
4406;DHT22;2216;53.806;11.598;2023-08-06T12:38:26;20.60;64.60
4406;DHT22;2216;53.806;11.598;2023-08-06T12:40:52;20.60;64.60
4406;DHT22;2216;53.806;11.598;2023-08-06T12:43:17;20.70;64.80
4406;DHT22;2216;53.806;11.598;2023-08-06T12:45:43;20.70;64.70
4406;DHT22;2216;53.806;11.598;2023-08-06T12:48:09;20.80;64.80
4406;DHT22;2216;53.806;11.598;2023-08-06T12:50:36;20.80;64.90
4406;DHT22;2216;53.806;11.598;2023-08-06T12:53:01;20.70;64.20
4406;DHT22;2216;53.806;11.598;2023-08-06T12:55:27;20.90;64.00
4406;DHT22;2216;53.806;11.598;2023-08-06T12:57:53;20.90;64.00
4406;DHT22;2216;53.806;11.598;2023-08-06T13:00:18;20.90;63.60
4406;DHT22;2216;53.806;11.598;2023-08-06T13:02:44;20.90;63.50
4406;DHT22;2216;53.806;11.598;2023-08-06T13:05:10;20.90;64.50
4406;DHT22;2216;53.806;11.598;2023-08-06T13:07:35;20.80;62.90
4406;DHT22;2216;53.806;11.598;2023-08-06T13:10:01;20.80;63.70
4406;DHT22;2216;53.806;11.598;2023-08-06T13:12:27;20.80;63.90
4406;DHT22;2216;53.806;11.598;2023-08-06T13:14:52;20.80;63.90
4406;DHT22;2216;53.806;11.598;2023-08-06T13:17:18;20.80;63.80
4406;DHT22;2216;53.806;11.598;2023-08-06T13:19:44;20.80;64.00
4406;DHT22;2216;53.806;11.598;2023-08-06T13:22:10;20.90;64.10
4406;DHT22;2216;53.806;11.598;2023-08-06T13:24:35;20.90;63.90
4406;DHT22;2216;53.806;11.598;2023-08-06T13:27:01;21.00;63.80
4406;DHT22;2216;53.806;11.598;2023-08-06T13:29:28;21.00;63.50
4406;DHT22;2216;53.806;11.598;2023-08-06T13:31:54;21.00;63.50
4406;DHT22;2216;53.806;11.598;2023-08-06T13:34:19;21.00;63.50
4406;DHT22;2216;53.806;11.598;2023-08-06T13:36:45;20.90;63.60
4406;DHT22;2216;53.806;11.598;2023-08-06T13:39:11;21.00;63.40
4406;DHT22;2216;53.806;11.598;2023-08-06T13:41:38;20.90;63.30
4406;DHT22;2216;53.806;11.598;2023-08-06T13:44:04;20.90;63.00
4406;DHT22;2216;53.806;11.598;2023-08-06T13:46:30;20.90;63.30
4406;DHT22;2216;53.806;11.598;2023-08-06T13:48:56;20.90;63.30
4406;DHT22;2216;53.806;11.598;2023-08-06T13:51:21;20.90;63.40
4406;DHT22;2216;53.806;11.598;2023-08-06T13:53:47;20.90;62.90
4406;DHT22;2216;53.806;11.598;2023-08-06T13:56:12;20.80;62.90
4406;DHT22;2216;53.806;11.598;2023-08-06T13:58:40;20.90;63.20
4406;DHT22;2216;53.806;11.598;2023-08-06T14:01:09;20.90;63.40
4406;DHT22;2216;53.806;11.598;2023-08-06T14:03:35;21.00;63.50
4406;DHT22;2216;53.806;11.598;2023-08-06T14:06:01;20.90;63.00
4406;DHT22;2216;53.806;11.598;2023-08-06T14:08:27;20.90;63.00
4406;DHT22;2216;53.806;11.598;2023-08-06T14:10:53;20.90;62.70
4406;DHT22;2216;53.806;11.598;2023-08-06T14:13:19;20.90;62.70
4406;DHT22;2216;53.806;11.598;2023-08-06T14:15:45;20.70;63.00
4406;DHT22;2216;53.806;11.598;2023-08-06T14:18:14;20.80;63.20
4406;DHT22;2216;53.806;11.598;2023-08-06T14:20:41;20.80;63.10
4406;DHT22;2216;53.806;11.598;2023-08-06T14:23:08;20.80;63.20
4406;DHT22;2216;53.806;11.598;2023-08-06T14:25:33;20.90;63.20
4406;DHT22;2216;53.806;11.598;2023-08-06T14:27:59;20.90;63.20
4406;DHT22;2216;53.806;11.598;2023-08-06T14:30:25;20.80;62.90
4406;DHT22;2216;53.806;11.598;2023-08-06T14:32:50;20.80;62.80
4406;DHT22;2216;53.806;11.598;2023-08-06T14:35:16;20.80;62.80
4406;DHT22;2216;53.806;11.598;2023-08-06T14:37:42;20.70;62.90
4406;DHT22;2216;53.806;11.598;2023-08-06T14:40:09;20.60;62.90
4406;DHT22;2216;53.806;11.598;2023-08-06T14:42:35;20.60;62.90
4406;DHT22;2216;53.806;11.598;2023-08-06T14:45:01;20.50;62.80
4406;DHT22;2216;53.806;11.598;2023-08-06T14:47:27;20.40;62.80
4406;DHT22;2216;53.806;11.598;2023-08-06T14:49:53;20.30;62.90
4406;DHT22;2216;53.806;11.598;2023-08-06T14:52:19;20.30;63.10
4406;DHT22;2216;53.806;11.598;2023-08-06T14:54:44;20.30;63.20
4406;DHT22;2216;53.806;11.598;2023-08-06T14:57:10;20.30;63.30
4406;DHT22;2216;53.806;11.598;2023-08-06T14:59:37;20.20;63.20
4406;DHT22;2216;53.806;11.598;2023-08-06T15:02:04;20.20;63.30
4406;DHT22;2216;53.806;11.598;2023-08-06T15:04:30;20.10;63.20
4406;DHT22;2216;53.806;11.598;2023-08-06T15:06:56;20.10;63.20
4406;DHT22;2216;53.806;11.598;2023-08-06T15:09:22;20.10;63.30
4406;DHT22;2216;53.806;11.598;2023-08-06T15:11:48;20.00;63.30
4406;DHT22;2216;53.806;11.598;2023-08-06T15:14:14;20.00;63.40
4406;DHT22;2216;53.806;11.598;2023-08-06T15:16:40;20.00;63.50
4406;DHT22;2216;53.806;11.598;2023-08-06T15:19:06;20.00;63.50
4406;DHT22;2216;53.806;11.598;2023-08-06T15:21:32;19.90;63.30
4406;DHT22;2216;53.806;11.598;2023-08-06T15:23:58;19.80;63.30
4406;DHT22;2216;53.806;11.598;2023-08-06T15:26:23;19.80;63.30
4406;DHT22;2216;53.806;11.598;2023-08-06T15:28:49;19.80;63.30
4406;DHT22;2216;53.806;11.598;2023-08-06T15:31:15;19.70;63.30
4406;DHT22;2216;53.806;11.598;2023-08-06T15:33:45;19.60;63.20
4406;DHT22;2216;53.806;11.598;2023-08-06T15:36:10;19.60;63.30
4406;DHT22;2216;53.806;11.598;2023-08-06T15:38:36;19.50;63.30
4406;DHT22;2216;53.806;11.598;2023-08-06T15:41:02;19.50;63.50
4406;DHT22;2216;53.806;11.598;2023-08-06T15:43:27;19.50;63.50
4406;DHT22;2216;53.806;11.598;2023-08-06T15:45:53;19.40;63.60
4406;DHT22;2216;53.806;11.598;2023-08-06T15:48:19;19.40;63.60